createdAt,value
2018-11-26T00:01:27.323Z,21.87
2018-11-26T00:03:55.414Z,22.47
2018-11-26T00:06:23.491Z,22.47
2018-11-26T00:08:51.555Z,22.63
2018-11-26T00:11:31.756Z,22.37
2018-11-26T00:13:59.842Z,21.77
2018-11-26T00:16:27.935Z,20.23
2018-11-26T00:18:56.023Z,18.40
2018-11-26T00:21:24.154Z,16.80
2018-11-26T00:23:52.251Z,16.07
2018-11-26T00:26:20.326Z,16.23
2018-11-26T00:28:48.414Z,15.60
2018-11-26T00:31:16.498Z,15.17
2018-11-26T00:33:44.561Z,14.93
2018-11-26T00:36:12.655Z,15.53
2018-11-26T00:38:40.734Z,14.03
2018-11-26T00:41:08.832Z,14.60
2018-11-26T00:43:36.915Z,15.13
2018-11-26T00:46:05.214Z,15.37
2018-11-26T00:48:35.435Z,14.70
2018-11-26T00:51:03.572Z,14.80
2018-11-26T00:53:31.695Z,15.00
2018-11-26T00:55:59.774Z,13.35
2018-11-26T00:58:27.844Z,14.43
2018-11-26T01:00:55.922Z,14.10
2018-11-26T01:03:24.035Z,12.73
2018-11-26T01:05:52.115Z,13.23
2018-11-26T01:08:20.182Z,12.47
2018-11-26T01:10:48.253Z,13.10
2018-11-26T01:13:16.334Z,12.73
2018-11-26T01:15:44.410Z,11.87
2018-11-26T01:18:12.510Z,13.38
2018-11-26T01:20:40.594Z,12.23
2018-11-26T01:23:08.683Z,12.40
2018-11-26T01:25:36.751Z,11.50
2018-11-26T01:28:06.639Z,11.90
2018-11-26T01:30:35.249Z,12.83
2018-11-26T01:33:03.359Z,12.37
2018-11-26T01:35:31.430Z,12.20
2018-11-26T01:37:59.558Z,13.43
2018-11-26T01:40:33.022Z,12.10
2018-11-26T01:43:01.111Z,12.33
2018-11-26T01:45:29.186Z,11.87
2018-11-26T01:47:57.297Z,11.90
2018-11-26T01:50:25.358Z,11.80
2018-11-26T01:52:53.442Z,12.70
2018-11-26T01:55:22.069Z,12.47
2018-11-26T01:57:50.135Z,13.20
2018-11-26T02:00:20.378Z,12.07
2018-11-26T02:02:48.469Z,12.90
2018-11-26T02:05:16.558Z,13.43
2018-11-26T02:07:44.738Z,11.83
2018-11-26T02:10:14.670Z,12.53
2018-11-26T02:12:42.757Z,13.75
2018-11-26T02:15:13.721Z,13.63
2018-11-26T02:17:41.814Z,13.08
2018-11-26T02:20:10.687Z,13.80
2018-11-26T02:22:38.806Z,13.43
2018-11-26T02:25:07.951Z,14.10
2018-11-26T02:27:36.185Z,14.50
2018-11-26T02:30:04.509Z,13.57
2018-11-26T02:32:32.590Z,14.27
2018-11-26T02:35:00.678Z,13.98
2018-11-26T02:37:28.865Z,13.40
2018-11-26T02:39:56.933Z,13.55
2018-11-26T02:42:24.994Z,14.37
2018-11-26T02:44:54.262Z,14.23
2018-11-26T02:47:22.356Z,13.57
2018-11-26T02:49:50.467Z,13.37
2018-11-26T02:52:18.534Z,13.47
2018-11-26T02:54:46.612Z,13.97
2018-11-26T02:57:14.679Z,15.18
2018-11-26T02:59:42.776Z,13.53
2018-11-26T03:02:10.852Z,13.80
2018-11-26T03:04:38.938Z,13.13
2018-11-26T03:07:07.007Z,14.20
2018-11-26T03:09:35.095Z,14.73
2018-11-26T03:12:03.171Z,15.00
2018-11-26T03:14:31.243Z,14.00
2018-11-26T03:16:59.322Z,14.03
2018-11-26T03:19:27.406Z,15.18
2018-11-26T03:21:55.493Z,15.30
2018-11-26T03:24:23.579Z,14.77
2018-11-26T03:26:51.653Z,14.73
2018-11-26T03:29:19.718Z,15.10
2018-11-26T03:31:47.798Z,15.90
2018-11-26T03:34:15.874Z,16.70
2018-11-26T03:36:43.946Z,16.02
2018-11-26T03:39:12.023Z,16.80
2018-11-26T03:41:40.109Z,17.02
2018-11-26T03:44:08.186Z,16.70
2018-11-26T03:46:38.101Z,16.40
2018-11-26T03:49:06.454Z,17.27
2018-11-26T03:51:34.522Z,16.30
2018-11-26T03:54:02.599Z,17.00
2018-11-26T03:56:30.667Z,17.77
2018-11-26T03:58:58.734Z,16.32
2018-11-26T04:01:26.798Z,16.23
2018-11-26T04:03:54.878Z,15.65
2018-11-26T04:06:22.950Z,16.80
2018-11-26T04:08:51.173Z,16.17
2018-11-26T04:11:19.255Z,15.70
2018-11-26T04:13:47.389Z,14.97
2018-11-26T04:16:15.442Z,14.80
2018-11-26T04:18:43.534Z,13.93
2018-11-26T04:21:11.610Z,14.70
2018-11-26T04:23:39.687Z,15.53
2018-11-26T04:26:07.783Z,14.20
2018-11-26T04:28:35.842Z,14.90
2018-11-26T04:31:03.990Z,15.37
2018-11-26T04:33:32.103Z,15.20
2018-11-26T04:36:00.205Z,16.20
2018-11-26T04:38:30.653Z,15.70
2018-11-26T04:40:59.094Z,15.67
2018-11-26T04:43:27.308Z,15.45
2018-11-26T04:45:55.371Z,15.47
2018-11-26T04:48:23.658Z,16.40
2018-11-26T04:50:52.770Z,16.30
2018-11-26T04:53:21.374Z,16.75
2018-11-26T04:55:49.689Z,16.47
2018-11-26T04:58:18.033Z,16.43
2018-11-26T05:00:47.384Z,15.65
2018-11-26T05:03:15.652Z,16.57
2018-11-26T05:05:48.542Z,17.02
2018-11-26T05:08:16.594Z,15.23
2018-11-26T05:10:44.679Z,16.37
2018-11-26T05:13:12.762Z,16.40
2018-11-26T05:15:40.834Z,16.70
2018-11-26T05:18:09.118Z,16.63
2018-11-26T05:20:37.198Z,18.13
2018-11-26T05:23:05.366Z,17.33
2018-11-26T05:25:33.438Z,16.27
2018-11-26T05:28:01.506Z,17.32
2018-11-26T05:30:29.592Z,18.17
2018-11-26T05:32:58.254Z,17.97
2018-11-26T05:35:26.330Z,17.23
2018-11-26T05:37:56.102Z,17.82
2018-11-26T05:40:24.174Z,18.03
2018-11-26T05:42:52.239Z,17.97
2018-11-26T05:45:20.307Z,18.40
2018-11-26T05:47:48.371Z,18.37
2018-11-26T05:50:16.451Z,18.43
2018-11-26T05:52:44.542Z,17.80
2018-11-26T05:55:14.653Z,17.63
2018-11-26T05:57:42.965Z,17.13
2018-11-26T06:00:12.667Z,18.50
2018-11-26T06:02:40.718Z,19.63
2018-11-26T06:05:08.999Z,17.83
2018-11-26T06:07:37.077Z,17.17
2018-11-26T06:10:06.367Z,19.07
2018-11-26T06:12:34.441Z,18.40
2018-11-26T06:15:02.517Z,18.13
2018-11-26T06:17:30.591Z,17.73
2018-11-26T06:19:58.702Z,18.30
2018-11-26T06:22:27.770Z,17.40
2018-11-26T06:24:55.859Z,16.33
2018-11-26T06:27:23.927Z,17.70
2018-11-26T06:29:52.006Z,17.40
2018-11-26T06:32:20.078Z,17.17
2018-11-26T06:34:48.175Z,17.98
2018-11-26T06:37:16.255Z,17.53
2018-11-26T06:39:45.174Z,17.13
2018-11-26T06:42:13.386Z,17.20
2018-11-26T06:44:42.977Z,17.90
2018-11-26T06:47:11.335Z,17.53
2018-11-26T06:49:39.415Z,18.03
2018-11-26T06:52:07.478Z,19.30
2018-11-26T06:54:35.546Z,17.67
